Time;durP1;ratioP1;P1;durP2;ratioP2;P2;SDS_P1;SDS_P2;PMS_P1;PMS_P2;Temp;Humidity;BMP_temperature;BMP_pressure;BME280_temperature;BME280_humidity;BME280_pressure;Samples;Min_cycle;Max_cycle;Signal;HPM_P1;HPM_P2
2024/02/01 00:01:23;;;;;;;77.13;40.90;;;1.20;99.90;;;;;;5072704;28;20028;-74
2024/02/01 00:03:49;;;;;;;77.15;41.33;;;1.20;99.90;;;;;;5071924;28;20403;-74
2024/02/01 00:06:15;;;;;;;75.43;39.17;;;1.20;99.90;;;;;;5071215;28;20020;-70
2024/02/01 00:08:41;;;;;;;85.28;42.95;;;1.20;99.90;;;;;;5071917;28;20474;-74
2024/02/01 00:11:07;;;;;;;80.07;42.22;;;1.20;99.90;;;;;;5072751;28;20070;-70
2024/02/01 00:13:32;;;;;;;73.68;39.78;;;1.20;99.90;;;;;;5072102;28;20020;-70
2024/02/01 00:15:58;;;;;;;85.32;44.13;;;1.20;99.90;;;;;;5072373;28;20033;-70
2024/02/01 00:18:24;;;;;;;84.25;42.67;;;1.20;99.90;;;;;;5069570;28;20025;-70
2024/02/01 00:20:50;;;;;;;79.68;39.47;;;1.30;99.90;;;;;;5072662;28;20382;-70
2024/02/01 00:23:15;;;;;;;79.07;42.70;;;1.30;99.90;;;;;;5065919;28;20025;-70
2024/02/01 00:25:41;;;;;;;71.38;37.17;;;1.30;99.90;;;;;;5065063;28;20075;-70
2024/02/01 00:28:07;;;;;;;76.78;39.40;;;1.30;99.90;;;;;;5072142;28;20032;-74
2024/02/01 00:30:33;;;;;;;71.95;37.45;;;1.30;99.90;;;;;;5073120;28;20542;-74
2024/02/01 00:32:58;;;;;;;68.35;37.42;;;1.40;99.90;;;;;;5076185;28;20478;-70
2024/02/01 00:35:24;;;;;;;67.57;35.42;;;1.40;99.90;;;;;;5074840;28;20020;-70
2024/02/01 00:37:50;;;;;;;71.82;37.60;;;1.40;99.90;;;;;;5076055;28;20059;-74
2024/02/01 00:40:15;;;;;;;73.38;37.92;;;1.40;99.90;;;;;;5075786;28;20060;-70
2024/02/01 00:42:41;;;;;;;72.88;37.15;;;1.40;99.90;;;;;;5076032;28;20099;-74
2024/02/01 00:45:08;;;;;;;64.13;35.47;;;1.50;99.90;;;;;;5067440;28;20033;-70
2024/02/01 00:47:33;;;;;;;63.13;33.60;;;1.50;99.90;;;;;;5075496;28;20074;-70
2024/02/01 00:49:59;;;;;;;64.88;35.15;;;1.60;99.90;;;;;;5074649;28;20432;-70
2024/02/01 00:52:24;;;;;;;67.68;33.97;;;1.60;99.90;;;;;;5075578;28;20048;-70
2024/02/01 00:54:50;;;;;;;76.78;35.53;;;1.60;99.90;;;;;;5074342;28;20033;-74
2024/02/01 00:57:15;;;;;;;66.00;37.45;;;1.60;99.90;;;;;;5075608;28;20020;-70
2024/02/01 00:59:41;;;;;;;62.17;31.60;;;1.70;99.90;;;;;;5081464;28;20043;-70
2024/02/01 01:02:07;;;;;;;57.53;32.38;;;1.70;99.90;;;;;;5075501;28;20017;-71
2024/02/01 01:04:32;;;;;;;63.80;32.33;;;1.70;99.90;;;;;;5074078;28;20135;-74
2024/02/01 01:06:58;;;;;;;68.53;32.33;;;1.70;99.90;;;;;;5074359;28;20115;-71
2024/02/01 01:09:24;;;;;;;67.85;33.85;;;1.70;99.90;;;;;;5075543;28;20036;-74
2024/02/01 01:11:49;;;;;;;64.82;34.25;;;1.70;99.90;;;;;;5075219;28;20062;-71
2024/02/01 01:14:15;;;;;;;58.72;30.33;;;1.80;99.90;;;;;;5074027;28;20017;-71
2024/02/01 01:16:41;;;;;;;61.83;33.80;;;1.70;99.90;;;;;;5075127;28;20031;-73
2024/02/01 01:19:06;;;;;;;60.75;28.50;;;1.70;99.90;;;;;;5075320;28;20048;-74
2024/02/01 01:21:32;;;;;;;52.10;28.25;;;1.70;99.90;;;;;;5075372;28;20075;-73
2024/02/01 01:23:58;;;;;;;48.72;26.65;;;1.70;99.90;;;;;;5075586;28;20028;-73
2024/02/01 01:26:25;;;;;;;49.58;28.35;;;1.70;99.90;;;;;;5075094;28;20024;-70
2024/02/01 01:28:50;;;;;;;50.00;25.77;;;1.70;99.90;;;;;;5074899;28;20040;-74
2024/02/01 01:31:16;;;;;;;46.38;24.40;;;1.70;99.90;;;;;;5067193;28;20012;-74
2024/02/01 01:33:42;;;;;;;46.33;25.23;;;1.60;99.90;;;;;;5073740;28;20355;-73
2024/02/01 01:36:07;;;;;;;50.70;26.33;;;1.70;99.90;;;;;;5075150;28;20458;-70
2024/02/01 01:38:33;;;;;;;44.70;22.60;;;1.70;99.90;;;;;;5072230;28;20537;-74
2024/02/01 01:40:58;;;;;;;46.47;24.40;;;1.60;99.90;;;;;;5074903;28;20405;-74
2024/02/01 01:43:25;;;;;;;48.15;25.00;;;1.60;99.90;;;;;;5072850;28;20052;-74
2024/02/01 01:46:01;;;;;;;47.88;25.05;;;1.70;99.90;;;;;;5074685;28;20089;-74
2024/02/01 01:48:28;;;;;;;51.15;25.00;;;1.70;99.90;;;;;;5073280;28;20481;-74
2024/02/01 01:50:54;;;;;;;45.03;24.05;;;1.70;99.90;;;;;;5074780;28;20166;-74
2024/02/01 01:53:20;;;;;;;44.97;23.45;;;1.70;99.90;;;;;;5074365;28;20127;-70
2024/02/01 01:55:46;;;;;;;42.15;24.15;;;1.70;99.90;;;;;;5086909;28;20020;-70
2024/02/01 01:58:13;;;;;;;44.95;24.02;;;1.70;99.90;;;;;;5074664;28;20020;-70
2024/02/01 02:00:40;;;;;;;47.50;23.13;;;1.70;99.90;;;;;;5073136;28;20024;-74
2024/02/01 02:03:06;;;;;;;46.22;21.98;;;1.70;99.90;;;;;;5072369;28;20591;-74
2024/02/01 02:05:32;;;;;;;49.63;24.27;;;1.70;99.90;;;;;;5072858;28;20099;-70
2024/02/01 02:07:57;;;;;;;44.42;23.65;;;1.70;99.90;;;;;;5074320;28;20190;-70
2024/02/01 02:10:23;;;;;;;43.85;22.13;;;1.70;99.90;;;;;;5074510;28;20043;-74
2024/02/01 02:12:49;;;;;;;44.35;24.52;;;1.60;99.90;;;;;;5074484;28;20024;-73
2024/02/01 02:15:16;;;;;;;44.42;24.88;;;1.60;99.90;;;;;;5073995;28;20020;-70
2024/02/01 02:17:42;;;;;;;46.65;25.13;;;1.50;99.90;;;;;;5074171;28;20031;-70
2024/02/01 02:20:17;;;;;;;40.92;22.33;;;1.50;99.90;;;;;;5074147;28;20020;-70
2024/02/01 02:22:47;;;;;;;44.67;23.30;;;1.40;99.90;;;;;;5074050;28;20044;-70
2024/02/01 02:25:13;;;;;;;49.42;26.13;;;1.40;99.90;;;;;;5074041;28;20020;-70
2024/02/01 02:27:42;;;;;;;48.28;25.33;;;1.30;99.90;;;;;;5073994;28;20047;-70
2024/02/01 02:30:14;;;;;;;46.88;24.67;;;1.30;99.90;;;;;;5074344;28;20170;-70
2024/02/01 02:32:40;;;;;;;49.15;24.13;;;1.20;99.90;;;;;;5069430;28;20039;-70
2024/02/01 02:35:14;;;;;;;51.17;25.42;;;1.10;99.90;;;;;;5072490;28;20028;-74
2024/02/01 02:37:46;;;;;;;46.30;27.42;;;1.10;99.90;;;;;;5073907;28;20108;-74
2024/02/01 02:40:18;;;;;;;48.58;26.75;;;1.00;99.90;;;;;;5073850;28;20044;-70
2024/02/01 02:42:44;;;;;;;53.00;24.20;;;1.00;99.90;;;;;;5073804;28;20035;-74
2024/02/01 02:45:10;;;;;;;44.72;23.98;;;1.00;99.90;;;;;;5073746;28;20025;-73
2024/02/01 02:47:37;;;;;;;52.33;25.42;;;0.90;99.90;;;;;;5073536;28;20029;-71
2024/02/01 02:50:06;;;;;;;51.72;25.35;;;0.90;99.90;;;;;;5073496;28;20099;-70
2024/02/01 02:52:38;;;;;;;44.00;24.73;;;0.80;99.90;;;;;;5071456;28;20068;-74
2024/02/01 02:55:07;;;;;;;49.13;23.48;;;0.80;99.90;;;;;;5072381;28;20032;-70
2024/02/01 02:57:34;;;;;;;47.20;24.65;;;0.80;99.90;;;;;;5073544;28;20421;-73
2024/02/01 03:00:01;;;;;;;45.33;23.83;;;0.80;99.90;;;;;;5073012;28;20024;-70
2024/02/01 03:02:26;;;;;;;40.92;22.27;;;0.80;99.90;;;;;;5071867;28;20020;-70
2024/02/01 03:04:52;;;;;;;43.75;23.30;;;0.80;99.90;;;;;;5071149;28;20024;-70
2024/02/01 03:07:18;;;;;;;47.30;22.63;;;0.80;99.90;;;;;;5072283;28;20021;-70
2024/02/01 03:09:44;;;;;;;42.45;23.60;;;0.80;99.90;;;;;;5072271;28;20060;-70
2024/02/01 03:12:09;;;;;;;37.08;21.17;;;0.90;99.90;;;;;;5073404;28;20547;-70
2024/02/01 03:14:40;;;;;;;41.38;20.77;;;0.90;99.90;;;;;;5072856;28;20448;-70
2024/02/01 03:17:08;;;;;;;34.58;18.83;;;0.90;99.90;;;;;;5072950;28;20035;-70
2024/02/01 03:19:42;;;;;;;38.33;19.10;;;1.00;99.90;;;;;;5072826;28;20029;-70
2024/02/01 03:22:08;;;;;;;38.42;20.55;;;1.00;99.90;;;;;;5072947;28;20070;-74
2024/02/01 03:24:34;;;;;;;33.42;19.05;;;1.00;99.90;;;;;;5071901;28;20028;-70
2024/02/01 03:26:59;;;;;;;34.85;18.65;;;1.00;99.90;;;;;;5073275;28;20053;-70
2024/02/01 03:29:28;;;;;;;38.55;18.83;;;1.00;99.90;;;;;;5072597;28;20024;-74
2024/02/01 03:31:54;;;;;;;31.73;18.30;;;1.10;99.90;;;;;;5064812;28;20430;-74
2024/02/01 03:34:20;;;;;;;41.17;20.92;;;1.10;99.90;;;;;;5071225;28;20369;-74
2024/02/01 03:36:50;;;;;;;44.35;20.17;;;1.10;99.90;;;;;;5084569;28;20111;-74
2024/02/01 03:39:22;;;;;;;37.53;20.35;;;1.10;99.90;;;;;;5072563;28;20034;-70
2024/02/01 03:41:54;;;;;;;41.42;21.15;;;1.20;99.90;;;;;;5061548;28;20031;-73
2024/02/01 03:44:24;;;;;;;37.60;20.17;;;1.20;99.90;;;;;;5070923;28;20017;-73
2024/02/01 03:46:54;;;;;;;35.00;20.48;;;1.20;99.90;;;;;;5072659;28;20020;-74
2024/02/01 03:49:20;;;;;;;39.55;21.50;;;1.30;99.90;;;;;;5070599;28;20066;-74
2024/02/01 03:51:46;;;;;;;34.92;18.73;;;1.30;99.90;;;;;;5070713;28;20017;-73
2024/02/01 03:54:12;;;;;;;37.25;20.05;;;1.40;99.90;;;;;;5070811;28;20169;-74
2024/02/01 03:56:38;;;;;;;37.13;19.08;;;1.40;99.90;;;;;;5072850;28;20067;-74
2024/02/01 03:59:08;;;;;;;39.83;21.88;;;1.50;99.90;;;;;;5071307;28;20113;-70
2024/02/01 04:01:33;;;;;;;37.42;20.38;;;1.50;99.90;;;;;;5072710;28;20013;-74
2024/02/01 04:03:59;;;;;;;40.00;21.00;;;1.50;99.90;;;;;;5071896;28;20381;-74
2024/02/01 04:06:25;;;;;;;37.60;20.88;;;1.50;99.90;;;;;;5071747;28;20146;-74
2024/02/01 04:08:51;;;;;;;39.78;20.08;;;1.60;99.90;;;;;;5071961;28;20374;-70
2024/02/01 04:11:17;;;;;;;39.97;20.77;;;1.60;99.90;;;;;;5071402;28;20078;-74
2024/02/01 04:13:43;;;;;;;42.15;20.50;;;1.60;99.90;;;;;;5071979;28;20473;-73
2024/02/01 04:16:09;;;;;;;38.95;20.42;;;1.60;99.90;;;;;;5072529;28;20020;-73
2024/02/01 04:18:35;;;;;;;39.30;21.70;;;1.50;99.90;;;;;;5072065;28;20009;-70
2024/02/01 04:21:01;;;;;;;41.40;21.02;;;1.60;99.90;;;;;;5071767;28;20099;-73
2024/02/01 04:23:29;;;;;;;40.38;21.35;;;1.60;99.90;;;;;;5070576;28;20247;-74
2024/02/01 04:25:55;;;;;;;42.17;21.20;;;1.50;99.90;;;;;;5063453;28;20032;-73
2024/02/01 04:28:21;;;;;;;40.53;22.27;;;1.50;99.90;;;;;;5071913;28;20047;-74
2024/02/01 04:30:50;;;;;;;43.72;20.65;;;1.50;99.90;;;;;;5072574;28;20017;-70
2024/02/01 04:33:22;;;;;;;34.38;19.50;;;1.50;99.90;;;;;;5071547;28;20028;-74
2024/02/01 04:35:48;;;;;;;43.17;20.27;;;1.50;99.90;;;;;;5072106;28;20041;-70
2024/02/01 04:38:14;;;;;;;43.08;21.92;;;1.50;99.90;;;;;;5070586;28;20381;-70
2024/02/01 04:40:43;;;;;;;35.05;18.83;;;1.50;99.90;;;;;;5072031;28;20025;-70
2024/02/01 04:43:10;;;;;;;40.95;22.08;;;1.50;99.90;;;;;;5072209;28;20017;-74
2024/02/01 04:45:36;;;;;;;41.75;22.27;;;1.50;99.90;;;;;;5072039;28;20151;-70
2024/02/01 04:48:03;;;;;;;47.47;24.88;;;1.50;99.90;;;;;;5071619;28;20120;-74
2024/02/01 04:50:29;;;;;;;45.45;22.65;;;1.40;99.90;;;;;;5070694;28;20069;-70
2024/02/01 04:52:54;;;;;;;37.88;20.48;;;1.50;99.90;;;;;;5071759;28;20044;-70
2024/02/01 04:55:21;;;;;;;40.53;22.13;;;1.40;99.90;;;;;;5069758;28;21717;-73
2024/02/01 04:57:47;;;;;;;40.28;21.00;;;1.40;99.90;;;;;;5071901;28;20096;-74
2024/02/01 05:00:14;;;;;;;44.63;22.35;;;1.40;99.90;;;;;;5070543;28;20124;-71
2024/02/01 05:02:40;;;;;;;40.25;21.92;;;1.40;99.90;;;;;;5071678;28;20028;-70
2024/02/01 05:05:10;;;;;;;42.97;20.63;;;1.40;99.90;;;;;;5070231;28;20162;-75
2024/02/01 05:07:36;;;;;;;39.88;21.13;;;1.30;99.90;;;;;;5067281;28;20028;-74
2024/02/01 05:10:03;;;;;;;37.50;21.13;;;1.40;99.90;;;;;;5071236;28;20489;-74
2024/02/01 05:12:29;;;;;;;49.42;22.75;;;1.30;99.90;;;;;;5071721;28;20040;-74
2024/02/01 05:14:55;;;;;;;44.95;23.05;;;1.30;99.90;;;;;;5071805;28;20482;-74
2024/02/01 05:17:20;;;;;;;49.08;23.63;;;1.30;99.90;;;;;;5070925;28;20029;-71
2024/02/01 05:19:46;;;;;;;48.05;25.80;;;1.30;99.90;;;;;;5075101;28;20016;-71
2024/02/01 05:22:12;;;;;;;45.30;23.45;;;1.30;99.90;;;;;;5075466;28;20102;-74
2024/02/01 05:24:37;;;;;;;42.20;23.15;;;1.20;99.90;;;;;;5075133;28;20096;-74
2024/02/01 05:27:09;;;;;;;45.53;23.75;;;1.20;99.90;;;;;;5075234;28;20012;-70
2024/02/01 05:29:38;;;;;;;43.80;23.13;;;1.10;99.90;;;;;;5074784;28;20119;-71
2024/02/01 05:32:06;;;;;;;44.20;23.42;;;1.20;99.90;;;;;;5074808;28;20025;-74
2024/02/01 05:34:33;;;;;;;44.60;23.02;;;1.10;99.90;;;;;;5074709;28;20025;-73
2024/02/01 05:36:59;;;;;;;41.60;23.48;;;1.10;99.90;;;;;;5073947;28;20029;-74
2024/02/01 05:39:25;;;;;;;53.00;27.27;;;1.10;99.90;;;;;;5074497;28;20021;-74
2024/02/01 05:41:53;;;;;;;53.30;26.63;;;1.10;99.90;;;;;;5075258;28;20020;-74
2024/02/01 05:44:20;;;;;;;49.38;25.70;;;1.10;99.90;;;;;;5074657;28;20036;-74
2024/02/01 05:46:49;;;;;;;53.03;25.88;;;1.10;99.90;;;;;;5074954;28;20052;-74
2024/02/01 05:49:18;;;;;;;47.20;24.08;;;1.00;99.90;;;;;;5074337;28;20041;-70
2024/02/01 05:51:52;;;;;;;51.30;26.85;;;1.00;99.90;;;;;;5075055;28;20025;-74
2024/02/01 05:54:19;;;;;;;52.92;26.58;;;1.00;99.90;;;;;;5073256;28;20040;-74
2024/02/01 05:56:48;;;;;;;50.72;24.92;;;1.00;99.90;;;;;;5075124;28;20055;-70
2024/02/01 05:59:16;;;;;;;47.13;25.15;;;1.00;99.90;;;;;;5074258;28;20051;-70
2024/02/01 06:01:43;;;;;;;43.10;23.58;;;1.00;99.90;;;;;;5073288;28;20052;-74
2024/02/01 06:04:09;;;;;;;53.72;24.83;;;1.00;99.90;;;;;;5081031;28;20516;-74
2024/02/01 06:06:39;;;;;;;65.70;31.70;;;0.90;99.90;;;;;;5073018;28;20029;-74
2024/02/01 06:09:10;;;;;;;55.35;28.48;;;0.90;99.90;;;;;;5073778;28;20032;-74
2024/02/01 06:11:38;;;;;;;59.45;29.58;;;0.90;99.90;;;;;;5073494;28;20107;-74
2024/02/01 06:14:04;;;;;;;53.22;25.48;;;0.90;99.90;;;;;;5072513;28;20469;-74
2024/02/01 06:16:30;;;;;;;59.33;27.65;;;0.90;99.90;;;;;;5074396;28;20145;-74
2024/02/01 06:18:55;;;;;;;47.95;24.10;;;0.90;99.90;;;;;;5073755;28;20103;-74
2024/02/01 06:21:21;;;;;;;53.70;25.73;;;0.90;99.90;;;;;;5073386;28;20519;-74
2024/02/01 06:23:47;;;;;;;52.05;28.33;;;0.90;99.90;;;;;;5073951;28;20100;-71
2024/02/01 06:26:25;;;;;;;55.33;28.23;;;0.90;99.90;;;;;;5074299;28;20390;-72
2024/02/01 06:28:53;;;;;;;51.85;26.48;;;0.90;99.90;;;;;;5060885;28;20493;-71
2024/02/01 06:31:19;;;;;;;67.30;35.40;;;0.90;99.90;;;;;;5074119;28;20037;-74
2024/02/01 06:33:50;;;;;;;57.92;29.83;;;0.90;99.90;;;;;;5066339;28;20017;-71
2024/02/01 06:36:19;;;;;;;57.60;28.40;;;1.00;99.90;;;;;;5074195;28;20063;-70
2024/02/01 06:41:28;;;;;;;57.55;27.75;;;1.00;99.90;;;;;;5071634;28;20116;-71
2024/02/01 06:55:06;;;;;;;55.35;27.20;;;1.20;99.90;;;;;;5073361;28;20039;-74
2024/02/01 07:00:50;;;;;;;60.58;29.23;;;1.20;99.90;;;;;;5067651;28;20524;-70
2024/02/01 07:08:45;;;;;;;52.47;26.65;;;1.40;99.90;;;;;;5072128;28;20133;-72
2024/02/01 07:16:35;;;;;;;57.85;28.08;;;1.50;99.90;;;;;;5068321;28;20110;-72
2024/02/01 07:22:09;;;;;;;48.72;25.70;;;1.60;99.90;;;;;;5072975;28;20028;-72
2024/02/01 07:24:58;;;;;;;49.10;25.08;;;1.70;99.90;;;;;;5072278;28;20121;-71
2024/02/01 07:57:36;;;;;;;46.35;23.77;;;2.30;99.90;;;;;;5072674;28;20039;-71
2024/02/01 08:00:06;;;;;;;48.65;24.65;;;2.30;99.90;;;;;;5072067;28;20432;-71
2024/02/01 08:02:49;;;;;;;46.05;22.88;;;2.30;99.90;;;;;;5070574;28;20012;-71
2024/02/01 08:08:00;;;;;;;51.13;24.45;;;2.40;99.90;;;;;;5072187;28;20032;-71
2024/02/01 08:10:25;;;;;;;53.08;26.17;;;2.40;99.90;;;;;;5065334;28;20025;-70
2024/02/01 08:12:55;;;;;;;47.47;24.02;;;2.50;99.90;;;;;;5070884;28;20040;-71
2024/02/01 08:15:21;;;;;;;53.80;27.33;;;2.50;99.90;;;;;;5070100;28;20039;-71
2024/02/01 08:17:48;;;;;;;63.33;29.90;;;2.60;99.90;;;;;;5067598;28;20116;-70
2024/02/01 08:20:14;;;;;;;49.30;25.35;;;2.70;99.90;;;;;;5068537;28;20497;-70
2024/02/01 08:22:41;;;;;;;53.83;28.13;;;2.70;99.90;;;;;;5071194;28;20039;-71
2024/02/01 08:25:11;;;;;;;51.58;27.08;;;2.70;99.90;;;;;;5071438;28;20032;-71
2024/02/01 08:27:53;;;;;;;49.78;26.35;;;2.80;99.90;;;;;;5069180;28;20470;-71
2024/02/01 08:30:22;;;;;;;54.15;28.65;;;2.90;99.90;;;;;;5070606;28;20028;-71
2024/02/01 08:32:51;;;;;;;53.40;27.60;;;2.90;99.90;;;;;;5069776;28;20016;-70
2024/02/01 08:35:17;;;;;;;55.08;27.52;;;3.00;99.90;;;;;;5068881;28;20099;-71
2024/02/01 08:37:43;;;;;;;54.88;27.85;;;3.00;99.90;;;;;;5071571;28;20096;-71
2024/02/01 08:40:16;;;;;;;57.28;29.83;;;3.10;99.90;;;;;;5069433;28;20385;-71
2024/02/01 08:42:45;;;;;;;;;;;3.10;99.90;;;;;;5070781;28;20028;-70
2024/02/01 08:45:15;;;;;;;55.20;29.08;;;3.20;99.90;;;;;;5070833;28;19982;-71
2024/02/01 08:47:42;;;;;;;51.50;29.10;;;3.20;99.90;;;;;;5068289;28;20501;-70
2024/02/01 08:50:09;;;;;;;48.13;27.92;;;3.20;99.90;;;;;;5064080;28;21373;-71
2024/02/01 08:52:45;;;;;;;57.92;29.48;;;3.30;99.90;;;;;;5064549;28;20048;-70
2024/02/01 08:55:15;;;;;;;57.95;29.33;;;3.30;99.90;;;;;;5068222;28;20073;-71
2024/02/01 08:57:42;;;;;;;53.58;29.20;;;3.40;99.90;;;;;;5070556;28;20032;-70
2024/02/01 09:00:21;;;;;;;49.30;27.77;;;3.40;99.90;;;;;;5073577;28;20017;-70
2024/02/01 09:03:03;;;;;;;57.00;28.50;;;3.40;99.90;;;;;;5075257;28;20073;-70
2024/02/01 09:05:36;;;;;;;53.85;31.13;;;3.50;99.90;;;;;;5074189;28;20377;-70
2024/02/01 09:08:12;;;;;;;54.05;30.27;;;3.50;99.90;;;;;;5073319;28;20111;-71
2024/02/01 09:10:50;;;;;;;52.63;28.33;;;3.60;99.90;;;;;;5074849;28;20052;-70
2024/02/01 09:13:21;;;;;;;59.40;30.35;;;3.60;99.90;;;;;;5073666;28;20066;-70
2024/02/01 09:15:48;;;;;;;55.67;28.95;;;3.70;99.90;;;;;;5068568;28;20423;-70
2024/02/01 09:18:15;;;;;;;54.38;29.50;;;3.70;99.90;;;;;;5071537;28;20627;-70
2024/02/01 09:20:41;;;;;;;54.95;30.70;;;3.70;99.90;;;;;;5072701;28;20038;-70
2024/02/01 09:23:08;;;;;;;56.90;31.85;;;3.70;99.90;;;;;;5071628;28;20028;-70
2024/02/01 09:25:34;;;;;;;50.58;30.10;;;3.70;99.90;;;;;;5072650;28;20020;-70
2024/02/01 09:28:00;;;;;;;61.25;31.30;;;3.60;99.90;;;;;;5072490;28;20040;-70
2024/02/01 09:30:28;;;;;;;66.53;32.63;;;3.60;99.90;;;;;;5072547;28;20389;-70
2024/02/01 09:32:54;;;;;;;58.40;31.25;;;3.50;99.90;;;;;;5073244;28;20020;-70
2024/02/01 09:35:21;;;;;;;65.30;34.17;;;3.50;99.90;;;;;;5071719;28;20041;-70
2024/02/01 09:37:53;;;;;;;58.22;34.00;;;3.50;99.90;;;;;;5071720;28;20031;-70
2024/02/01 09:40:20;;;;;;;57.05;32.05;;;3.50;99.90;;;;;;5067691;28;20072;-70
2024/02/01 09:42:49;;;;;;;64.72;35.92;;;3.40;99.90;;;;;;5072044;28;20071;-70
2024/02/01 09:45:16;;;;;;;80.70;39.75;;;3.40;99.90;;;;;;5069670;28;20036;-71
2024/02/01 09:47:43;;;;;;;63.60;32.53;;;3.40;99.90;;;;;;5073389;28;20055;-70
2024/02/01 09:50:14;;;;;;;75.28;37.67;;;3.40;99.90;;;;;;5071337;28;20040;-70
2024/02/01 09:52:42;;;;;;;74.15;40.95;;;3.40;99.90;;;;;;5071834;28;20067;-70
2024/02/01 09:55:08;;;;;;;68.18;37.10;;;3.40;99.90;;;;;;5072576;28;20071;-70
2024/02/01 09:57:40;;;;;;;66.45;37.38;;;3.40;99.90;;;;;;5070771;28;20121;-70
2024/02/01 10:00:14;;;;;;;68.00;37.67;;;3.30;99.90;;;;;;5068762;28;20418;-70
2024/02/01 10:02:47;;;;;;;72.95;40.60;;;3.30;99.90;;;;;;5070765;28;20051;-70
2024/02/01 10:05:13;;;;;;;;;;;3.30;99.90;;;;;;5069705;28;20517;-70
2024/02/01 10:07:39;;;;;;;94.68;46.63;;;3.30;99.90;;;;;;5068145;28;19909;-70
2024/02/01 10:10:06;;;;;;;152.45;74.65;;;3.20;99.90;;;;;;5067421;28;20390;-70
2024/02/01 10:12:34;;;;;;;103.10;46.33;;;3.20;99.90;;;;;;5071945;28;20079;-70
2024/02/01 10:15:10;;;;;;;109.03;51.63;;;3.20;99.90;;;;;;5072800;28;20032;-70
2024/02/01 10:17:45;;;;;;;138.65;67.32;;;3.20;99.90;;;;;;5071976;28;20017;-71
2024/02/01 10:20:33;;;;;;;154.05;66.70;;;3.10;99.90;;;;;;5070153;28;20052;-71
2024/02/01 10:23:01;;;;;;;204.50;79.75;;;3.00;99.90;;;;;;5070545;28;20526;-71
2024/02/01 10:25:33;;;;;;;164.18;63.47;;;3.00;99.90;;;;;;5066826;28;20033;-71
2024/02/01 10:28:04;;;;;;;318.65;106.75;;;2.90;99.90;;;;;;5069938;28;20064;-71
2024/02/01 10:30:31;;;;;;;290.88;103.85;;;3.00;99.90;;;;;;5059548;28;20549;-71
2024/02/01 10:33:01;;;;;;;277.00;94.97;;;2.90;99.90;;;;;;5072775;28;20028;-70
2024/02/01 10:35:29;;;;;;;362.27;124.30;;;2.90;99.90;;;;;;5069782;28;20088;-70
2024/02/01 10:37:55;;;;;;;205.77;71.60;;;2.90;99.90;;;;;;5072093;28;20020;-70
2024/02/01 10:40:26;;;;;;;359.25;115.95;;;2.80;99.90;;;;;;5071075;28;20123;-70
2024/02/01 10:42:56;;;;;;;151.93;56.07;;;2.80;99.90;;;;;;5072250;28;20028;-71
2024/02/01 10:45:27;;;;;;;187.32;65.90;;;2.70;99.90;;;;;;5070652;28;20051;-72
2024/02/01 10:47:55;;;;;;;121.13;46.20;;;2.70;99.90;;;;;;5067734;28;20040;-72
2024/02/01 10:50:21;;;;;;;186.32;63.78;;;2.70;99.90;;;;;;5069850;28;20522;-71
2024/02/01 10:52:50;;;;;;;236.80;83.95;;;2.70;99.90;;;;;;5071389;28;20094;-72
2024/02/01 10:55:17;;;;;;;186.55;65.25;;;2.70;99.90;;;;;;5070678;28;20020;-72
2024/02/01 10:57:43;;;;;;;146.25;53.08;;;2.70;99.90;;;;;;5068735;28;20082;-72
2024/02/01 11:00:19;;;;;;;164.50;58.20;;;2.70;99.90;;;;;;5069575;28;20042;-71
2024/02/01 11:02:50;;;;;;;131.50;50.20;;;2.60;99.90;;;;;;5062483;28;20066;-71
2024/02/01 11:05:17;;;;;;;183.07;66.43;;;2.70;99.90;;;;;;5070851;28;20032;-72
2024/02/01 11:07:42;;;;;;;55.20;26.58;;;2.70;99.90;;;;;;5062533;28;20025;-71
2024/02/01 11:10:13;;;;;;;105.63;44.80;;;2.60;99.90;;;;;;5069660;28;20102;-72
2024/02/01 11:12:39;;;;;;;110.63;45.50;;;2.60;99.90;;;;;;5066853;28;20039;-71
2024/02/01 11:15:16;;;;;;;79.75;36.42;;;2.60;99.90;;;;;;5067809;28;20039;-72
2024/02/01 11:17:43;;;;;;;74.97;35.55;;;2.60;99.90;;;;;;5071240;28;20093;-71
2024/02/01 11:20:10;;;;;;;102.53;43.60;;;2.60;99.90;;;;;;5062816;28;20040;-72
2024/02/01 11:22:40;;;;;;;64.82;32.45;;;2.60;99.90;;;;;;5070919;28;20025;-71
2024/02/01 11:25:05;;;;;;;53.50;25.80;;;2.70;99.90;;;;;;5064389;28;20555;-71
2024/02/01 11:27:36;;;;;;;69.97;30.83;;;2.70;99.90;;;;;;5069515;28;20025;-72
2024/02/01 11:30:19;;;;;;;54.80;27.88;;;2.60;99.90;;;;;;5068442;28;20045;-71
2024/02/01 11:32:46;;;;;;;;;;;2.60;99.90;;;;;;5066106;28;20078;-71
2024/02/01 11:35:15;;;;;;;47.13;24.67;;;2.60;99.90;;;;;;5067341;28;19912;-72
2024/02/01 11:37:41;;;;;;;40.33;23.10;;;2.70;99.90;;;;;;5061331;28;20028;-71
2024/02/01 11:40:15;;;;;;;49.78;25.95;;;2.70;99.90;;;;;;5068582;28;20108;-72
2024/02/01 11:42:46;;;;;;;55.10;28.52;;;2.70;99.90;;;;;;5068644;28;20531;-72
2024/02/01 11:45:15;;;;;;;45.47;24.58;;;2.70;99.90;;;;;;5067719;28;20114;-71
2024/02/01 11:47:42;;;;;;;46.50;28.52;;;2.70;99.90;;;;;;5067742;28;20452;-71
2024/02/01 11:50:08;;;;;;;44.00;23.90;;;2.70;99.90;;;;;;5065933;28;20129;-72
2024/02/01 11:52:46;;;;;;;50.50;28.92;;;2.70;99.90;;;;;;5068965;28;20052;-72
2024/02/01 11:55:15;;;;;;;46.92;25.70;;;2.70;99.90;;;;;;5071645;28;20116;-72
2024/02/01 11:57:49;;;;;;;44.00;27.02;;;2.70;99.90;;;;;;5068371;28;20119;-71
2024/02/01 12:00:17;;;;;;;59.42;33.03;;;2.70;99.90;;;;;;5071981;28;20068;-72
2024/02/01 12:02:46;;;;;;;51.53;29.55;;;2.70;99.90;;;;;;5070043;28;20667;-72
2024/02/01 12:05:12;;;;;;;52.47;29.08;;;2.80;99.90;;;;;;5068566;28;20035;-72
2024/02/01 12:07:41;;;;;;;86.75;42.25;;;2.70;99.90;;;;;;5068765;28;20099;-71
2024/02/01 12:10:11;;;;;;;71.60;36.05;;;2.70;99.90;;;;;;5070874;28;20028;-72
2024/02/01 12:12:38;;;;;;;98.57;44.47;;;2.80;99.90;;;;;;5069096;28;20063;-71
2024/02/01 12:15:04;;;;;;;63.08;34.25;;;2.80;99.90;;;;;;5066681;28;20473;-71
2024/02/01 12:17:45;;;;;;;61.03;33.65;;;2.80;99.90;;;;;;5066584;28;20072;-71
2024/02/01 12:20:13;;;;;;;44.38;26.63;;;2.80;99.90;;;;;;5068323;28;20520;-71
2024/02/01 12:22:38;;;;;;;48.35;25.92;;;2.80;99.90;;;;;;5070611;28;20031;-71
2024/02/01 12:25:12;;;;;;;42.67;25.20;;;2.80;99.90;;;;;;5066080;28;20024;-72
2024/02/01 12:27:38;;;;;;;40.22;23.98;;;2.80;99.90;;;;;;5072282;28;20494;-71
2024/02/01 12:30:11;;;;;;;36.53;23.52;;;2.80;99.90;;;;;;5074245;28;20039;-71
2024/02/01 12:32:43;;;;;;;53.50;25.00;;;2.80;99.90;;;;;;5071716;28;20032;-71
2024/02/01 12:35:11;;;;;;;40.65;23.42;;;2.90;99.90;;;;;;5072856;28;20028;-71
2024/02/01 12:37:40;;;;;;;41.97;23.83;;;2.90;99.90;;;;;;5073276;28;20470;-71
2024/02/01 12:40:13;;;;;;;44.80;25.05;;;2.90;99.90;;;;;;5069416;28;20028;-71
2024/02/01 12:42:39;;;;;;;;;;;2.90;99.90;;;;;;5073621;28;20507;-71
2024/02/01 12:45:07;;;;;;;36.63;21.65;;;2.90;99.90;;;;;;5074375;28;19908;-71
2024/02/01 12:47:40;;;;;;;41.08;21.58;;;2.90;99.90;;;;;;5069198;28;20060;-71
2024/02/01 12:50:06;;;;;;;;;;;2.90;99.90;;;;;;5063411;28;20112;-71
2024/02/01 12:52:33;;;;;;;42.03;23.00;;;2.80;99.90;;;;;;5072988;28;19916;-71
2024/02/01 12:55:00;;;;;;;43.28;22.98;;;2.90;99.90;;;;;;5073597;28;20229;-71
2024/02/01 12:57:29;;;;;;;38.97;23.55;;;2.90;99.90;;;;;;5527574;22;20428;-76
2024/02/01 12:59:58;;;;;;;40.20;22.30;;;2.90;99.90;;;;;;5067742;28;20380;-76
2024/02/01 13:02:27;;;;;;;46.38;25.23;;;2.80;99.90;;;;;;5062851;28;20041;-73
2024/02/01 13:04:53;;;;;;;42.60;24.45;;;2.80;99.90;;;;;;5050932;28;20481;-73
2024/02/01 13:07:21;;;;;;;46.40;26.63;;;2.80;99.90;;;;;;5064712;28;20044;-73
2024/02/01 13:09:47;;;;;;;43.33;25.48;;;2.80;99.90;;;;;;5061345;28;20041;-74
2024/02/01 13:12:21;;;;;;;40.92;24.30;;;2.80;99.90;;;;;;5067443;28;20035;-73
2024/02/01 13:15:00;;;;;;;44.58;25.67;;;2.80;99.90;;;;;;5074181;28;20044;-74
2024/02/01 13:17:30;;;;;;;39.40;23.58;;;2.80;99.90;;;;;;5055712;28;20032;-74
2024/02/01 13:19:57;;;;;;;41.75;24.08;;;2.80;99.90;;;;;;5056885;28;20540;-74
2024/02/01 13:22:27;;;;;;;42.25;23.58;;;2.80;99.90;;;;;;5071272;28;20115;-73
2024/02/01 13:24:53;;;;;;;40.25;23.13;;;2.80;99.90;;;;;;5069120;28;20039;-73
2024/02/01 13:27:19;;;;;;;43.50;24.73;;;2.80;99.90;;;;;;5052605;28;20405;-73
2024/02/01 13:29:45;;;;;;;45.95;25.73;;;2.80;99.90;;;;;;5073048;28;20028;-73
2024/02/01 13:32:12;;;;;;;47.63;25.27;;;2.80;99.90;;;;;;5060995;28;20393;-74
2024/02/01 13:34:39;;;;;;;47.20;24.38;;;2.80;99.90;;;;;;5069484;28;20064;-74
2024/02/01 13:37:09;;;;;;;43.80;24.52;;;2.80;99.90;;;;;;5061176;28;21370;-74
2024/02/01 13:39:35;;;;;;;39.45;22.35;;;2.80;99.90;;;;;;5071644;28;20020;-73
2024/02/01 13:42:04;;;;;;;41.28;23.45;;;2.80;99.90;;;;;;5063291;28;20040;-74
2024/02/01 13:44:30;;;;;;;45.40;23.33;;;2.80;99.90;;;;;;5052341;28;20017;-74
2024/02/01 13:47:04;;;;;;;48.72;27.67;;;2.80;99.90;;;;;;5055290;28;20161;-73